createdAt,value
2022-08-16T00:01:24.789Z,53.26
2022-08-16T00:03:54.773Z,51.00
2022-08-16T00:06:23.204Z,53.01
2022-08-16T00:08:52.602Z,53.56
2022-08-16T00:11:21.231Z,53.44
2022-08-16T00:13:54.311Z,51.88
2022-08-16T00:17:05.646Z,52.26
2022-08-16T00:19:15.502Z,52.62
2022-08-16T00:21:44.733Z,53.19
2022-08-16T00:24:13.599Z,54.74
2022-08-16T00:26:59.890Z,56.28
2022-08-16T00:29:29.875Z,57.11
2022-08-16T00:32:05.668Z,56.46
2022-08-16T00:34:43.601Z,55.17
2022-08-16T00:37:24.531Z,54.73
2022-08-16T00:39:57.747Z,56.64
2022-08-16T00:42:30.082Z,55.36
2022-08-16T00:45:08.020Z,55.34
2022-08-16T00:47:42.476Z,58.32
2022-08-16T00:50:11.905Z,57.63
2022-08-16T00:52:46.023Z,56.16
2022-08-16T00:55:24.781Z,56.61
2022-08-16T00:58:12.866Z,56.22
2022-08-16T01:00:42.651Z,55.90
2022-08-16T01:03:12.914Z,56.94
2022-08-16T01:05:42.431Z,58.13
2022-08-16T01:08:35.099Z,58.77
2022-08-16T01:11:02.605Z,58.55
2022-08-16T01:13:31.911Z,57.62
2022-08-16T01:16:04.560Z,60.43
2022-08-16T01:18:44.293Z,60.08
2022-08-16T01:21:47.191Z,61.51
2022-08-16T01:24:51.951Z,58.44
2022-08-16T01:27:28.630Z,58.43
2022-08-16T01:30:01.402Z,59.13
2022-08-16T01:32:34.316Z,58.90
2022-08-16T01:35:06.834Z,58.78
2022-08-16T01:37:42.200Z,58.80
2022-08-16T01:40:12.317Z,59.07
2022-08-16T01:42:42.443Z,59.86
2022-08-16T01:45:10.520Z,60.91
2022-08-16T01:47:49.349Z,60.13
2022-08-16T01:51:07.872Z,59.44
2022-08-16T01:53:11.048Z,60.15
2022-08-16T01:55:41.680Z,60.38
2022-08-16T01:58:10.657Z,60.36
2022-08-16T02:00:40.805Z,61.89
2022-08-16T02:03:12.617Z,63.07
2022-08-16T02:05:42.113Z,62.41
2022-08-16T02:08:32.756Z,61.86
2022-08-16T02:11:05.341Z,61.42
2022-08-16T02:13:33.552Z,61.93
2022-08-16T02:16:01.940Z,62.79
2022-08-16T02:18:29.671Z,62.57
2022-08-16T02:21:00.199Z,61.44
2022-08-16T02:23:29.623Z,61.14
2022-08-16T02:25:59.527Z,61.84
2022-08-16T02:28:28.072Z,61.42
2022-08-16T02:31:00.201Z,62.73
2022-08-16T02:33:43.239Z,62.75
2022-08-16T02:36:47.715Z,62.87
2022-08-16T02:39:03.800Z,62.88
2022-08-16T02:41:37.422Z,64.27
2022-08-16T02:44:13.908Z,63.15
2022-08-16T02:46:49.821Z,63.19
2022-08-16T02:49:21.959Z,63.33
2022-08-16T02:52:00.239Z,62.97
2022-08-16T02:54:29.281Z,64.33
2022-08-16T02:56:57.128Z,64.88
2022-08-16T02:59:25.431Z,64.86
2022-08-16T03:02:09.015Z,65.51
2022-08-16T03:04:51.916Z,63.58
2022-08-16T03:07:27.596Z,63.60
2022-08-16T03:10:00.440Z,64.22
2022-08-16T03:12:30.399Z,62.99
2022-08-16T03:15:07.280Z,63.01
2022-08-16T03:17:36.854Z,63.56
2022-08-16T03:20:22.109Z,65.85
2022-08-16T03:23:01.790Z,64.33
2022-08-16T03:25:40.854Z,63.43
2022-08-16T03:28:13.214Z,62.95
2022-08-16T03:30:41.469Z,63.46
2022-08-16T03:33:10.193Z,63.79
2022-08-16T03:35:40.287Z,65.11
2022-08-16T03:38:32.627Z,64.97
2022-08-16T03:41:00.349Z,66.48
2022-08-16T03:43:52.029Z,63.09
2022-08-16T03:46:44.933Z,63.39
2022-08-16T03:49:13.137Z,63.63
2022-08-16T03:51:42.979Z,63.21
2022-08-16T03:54:12.906Z,63.41
2022-08-16T03:56:56.834Z,62.11
2022-08-16T03:59:29.522Z,62.98
2022-08-16T04:02:00.898Z,65.26
2022-08-16T04:04:32.663Z,64.01
2022-08-16T04:07:04.301Z,64.47
2022-08-16T04:09:37.987Z,63.53
2022-08-16T04:12:10.797Z,63.80
2022-08-16T04:14:55.741Z,63.00
2022-08-16T04:17:24.268Z,62.19
2022-08-16T04:19:58.408Z,62.48
2022-08-16T04:22:27.937Z,63.18
2022-08-16T04:24:59.439Z,63.22
2022-08-16T04:27:29.006Z,62.54
2022-08-16T04:30:02.719Z,62.33
2022-08-16T04:32:32.493Z,62.37
2022-08-16T04:35:06.308Z,61.34
2022-08-16T04:37:42.019Z,59.89
2022-08-16T04:40:20.523Z,58.23
2022-08-16T04:42:50.783Z,59.05
2022-08-16T04:45:35.700Z,58.90
2022-08-16T04:48:05.530Z,61.72
2022-08-16T04:50:34.302Z,59.25
2022-08-16T04:53:03.291Z,60.62
2022-08-16T04:55:38.118Z,60.27
2022-08-16T04:58:45.275Z,58.64
2022-08-16T05:00:56.720Z,57.11
2022-08-16T05:03:26.174Z,55.59
2022-08-16T05:05:55.788Z,57.37
2022-08-16T05:08:35.482Z,58.04
2022-08-16T05:11:08.266Z,58.27
2022-08-16T05:13:42.584Z,59.82
2022-08-16T05:16:22.994Z,59.95
2022-08-16T05:18:53.493Z,59.42
2022-08-16T05:21:27.064Z,58.64
2022-08-16T05:24:06.087Z,57.88
2022-08-16T05:26:40.978Z,55.12
2022-08-16T05:29:14.605Z,54.10
2022-08-16T05:31:53.013Z,50.82
2022-08-16T05:34:22.726Z,49.57
2022-08-16T05:36:53.242Z,49.71
2022-08-16T05:39:22.534Z,52.01
2022-08-16T05:41:54.273Z,52.78
2022-08-16T05:44:25.052Z,51.33
2022-08-16T05:46:56.193Z,51.70
2022-08-16T05:49:38.596Z,52.71
2022-08-16T05:52:11.424Z,51.35
2022-08-16T05:54:47.198Z,49.63
2022-08-16T05:57:18.622Z,52.67
2022-08-16T05:59:50.543Z,53.82
2022-08-16T06:02:33.288Z,50.73
2022-08-16T06:05:02.487Z,50.92
2022-08-16T06:07:32.167Z,51.05
2022-08-16T06:10:02.452Z,50.60
2022-08-16T06:12:31.547Z,51.03
2022-08-16T06:15:07.709Z,51.14
2022-08-16T06:17:42.363Z,51.47
2022-08-16T06:20:24.186Z,51.20
2022-08-16T06:23:03.699Z,50.61
2022-08-16T06:25:42.181Z,49.07
2022-08-16T06:28:17.139Z,48.92
2022-08-16T06:31:01.278Z,49.79
2022-08-16T06:33:41.135Z,47.84
2022-08-16T06:36:13.920Z,48.10
2022-08-16T06:38:55.400Z,46.32
2022-08-16T06:41:27.510Z,48.67
2022-08-16T06:43:56.774Z,50.42
2022-08-16T06:46:31.315Z,51.22
2022-08-16T06:49:06.471Z,50.13
2022-08-16T06:51:46.638Z,48.58
2022-08-16T06:54:18.439Z,48.43
2022-08-16T06:56:46.253Z,47.64
2022-08-16T06:59:14.313Z,49.27
2022-08-16T07:01:54.486Z,51.94
2022-08-16T07:04:32.544Z,46.28
2022-08-16T07:07:02.993Z,45.31
2022-08-16T07:09:31.546Z,43.25
2022-08-16T07:12:03.277Z,43.45
2022-08-16T07:14:35.139Z,44.33
2022-08-16T07:17:08.460Z,43.61
2022-08-16T07:20:30.227Z,43.63
2022-08-16T07:22:52.934Z,46.92
2022-08-16T07:25:25.872Z,48.42
2022-08-16T07:27:56.748Z,49.07
2022-08-16T07:30:39.127Z,48.87
2022-08-16T07:33:17.200Z,49.50
2022-08-16T07:36:06.572Z,53.34
2022-08-16T07:38:36.111Z,52.96
2022-08-16T07:41:09.967Z,50.97
2022-08-16T07:43:40.511Z,54.21
2022-08-16T07:46:39.713Z,54.13
2022-08-16T07:49:02.113Z,54.44
2022-08-16T07:51:35.534Z,54.27
2022-08-16T07:54:09.618Z,56.55
2022-08-16T07:56:40.772Z,53.79
2022-08-16T07:59:08.762Z,53.06
2022-08-16T08:01:38.412Z,49.28
2022-08-16T08:04:13.434Z,51.57
2022-08-16T08:06:42.690Z,50.46
2022-08-16T08:09:11.622Z,47.61
2022-08-16T08:11:39.800Z,46.86
2022-08-16T08:14:08.722Z,46.23
2022-08-16T08:16:57.005Z,46.44
2022-08-16T08:19:29.423Z,45.75
2022-08-16T08:22:01.269Z,45.57
2022-08-16T08:24:33.122Z,45.56
2022-08-16T08:27:03.978Z,43.41
2022-08-16T08:29:37.554Z,42.95
2022-08-16T08:32:57.919Z,42.68
2022-08-16T08:35:03.034Z,42.98
2022-08-16T08:37:53.825Z,42.51
2022-08-16T08:40:26.592Z,38.66
2022-08-16T08:42:57.776Z,38.05
2022-08-16T08:45:48.918Z,38.38
2022-08-16T08:48:33.952Z,37.66
2022-08-16T08:51:05.678Z,37.16
2022-08-16T08:53:39.951Z,36.26
2022-08-16T08:56:23.175Z,33.13
2022-08-16T08:58:59.981Z,34.32
2022-08-16T09:01:36.872Z,34.65
2022-08-16T09:04:17.463Z,30.14
2022-08-16T09:06:50.343Z,30.59
2022-08-16T09:09:24.045Z,29.44
2022-08-16T09:12:06.414Z,29.23
2022-08-16T09:14:49.398Z,28.99
2022-08-16T09:17:38.270Z,26.59
2022-08-16T09:20:16.953Z,27.91
2022-08-16T09:22:52.332Z,26.17
2022-08-16T09:25:26.048Z,26.44
2022-08-16T09:27:56.750Z,26.55
2022-08-16T09:30:33.670Z,26.32
2022-08-16T09:33:06.720Z,28.34
2022-08-16T09:35:39.125Z,26.44
2022-08-16T09:38:31.532Z,25.72
2022-08-16T09:41:03.391Z,26.35
2022-08-16T09:43:58.786Z,26.22
2022-08-16T09:46:44.640Z,25.95
2022-08-16T09:49:19.642Z,23.33
2022-08-16T09:51:55.567Z,23.54
2022-08-16T09:54:32.727Z,23.93
2022-08-16T09:57:07.934Z,24.15
2022-08-16T09:59:43.852Z,22.73
2022-08-16T10:02:25.932Z,23.79
2022-08-16T10:04:59.031Z,24.56
2022-08-16T10:07:45.050Z,23.09
2022-08-16T10:10:48.002Z,24.14
2022-08-16T10:13:46.907Z,23.56
2022-08-16T10:16:22.074Z,23.53
2022-08-16T10:19:01.838Z,24.73
2022-08-16T10:21:48.332Z,21.61
2022-08-16T10:24:56.218Z,21.84
2022-08-16T10:27:45.666Z,20.03
2022-08-16T10:30:46.009Z,20.90
2022-08-16T10:34:00.020Z,19.97
2022-08-16T10:36:59.472Z,20.33
2022-08-16T10:39:56.321Z,20.97
2022-08-16T10:46:39.684Z,19.77
2022-08-16T10:49:40.303Z,19.91
2022-08-16T10:52:27.362Z,19.37
2022-08-16T10:55:40.354Z,19.87
2022-08-16T10:58:16.989Z,19.40
2022-08-16T11:00:46.703Z,18.33
2022-08-16T11:03:46.052Z,19.05
2022-08-16T11:06:33.182Z,21.01
2022-08-16T11:12:13.904Z,19.11
2022-08-16T11:17:34.062Z,19.57
2022-08-16T11:22:52.616Z,19.69
2022-08-16T11:29:11.910Z,18.37
2022-08-16T11:31:07.640Z,17.27
2022-08-16T11:33:52.695Z,18.50
2022-08-16T11:36:27.279Z,18.00
2022-08-16T11:39:00.517Z,18.13
2022-08-16T11:41:50.652Z,17.63
2022-08-16T11:44:43.702Z,19.56
2022-08-16T11:47:11.182Z,19.17
2022-08-16T11:49:47.870Z,18.91
2022-08-16T11:52:27.816Z,21.21
2022-08-16T11:55:00.353Z,21.75
2022-08-16T11:57:33.767Z,19.19
2022-08-16T12:00:34.172Z,20.15
2022-08-16T12:03:12.268Z,19.75
2022-08-16T12:06:03.199Z,19.94
2022-08-16T12:08:49.662Z,20.48
2022-08-16T12:11:22.613Z,21.07
2022-08-16T12:13:56.471Z,20.42
2022-08-16T12:16:24.828Z,21.81
2022-08-16T12:19:00.943Z,22.82
2022-08-16T12:22:05.367Z,20.48
2022-08-16T12:25:17.477Z,21.09
2022-08-16T12:27:56.558Z,21.49
2022-08-16T12:30:50.132Z,21.37
2022-08-16T12:33:25.272Z,21.01
2022-08-16T12:35:54.191Z,22.74
2022-08-16T12:38:40.811Z,23.73
2022-08-16T12:41:13.931Z,24.81
2022-08-16T12:43:57.217Z,25.75
2022-08-16T12:46:31.292Z,25.36
2022-08-16T12:49:03.490Z,25.73
2022-08-16T12:51:59.965Z,25.34
2022-08-16T12:54:28.426Z,25.36
2022-08-16T12:57:02.850Z,27.11
2022-08-16T12:59:49.341Z,28.05
2022-08-16T13:02:33.806Z,28.87
2022-08-16T13:05:09.002Z,29.26
2022-08-16T13:07:45.175Z,29.34
2022-08-16T13:10:37.048Z,28.06
2022-08-16T13:13:09.301Z,28.15
2022-08-16T13:15:51.726Z,27.61
2022-08-16T13:18:33.780Z,27.29
2022-08-16T13:21:07.982Z,27.14
2022-08-16T13:23:43.398Z,26.74
2022-08-16T13:26:12.983Z,27.04
2022-08-16T13:28:47.903Z,27.45
2022-08-16T13:31:16.925Z,26.51
2022-08-16T13:33:45.426Z,27.53
2022-08-16T13:36:32.329Z,27.30
2022-08-16T13:39:04.448Z,27.53
2022-08-16T13:41:33.080Z,27.30
2022-08-16T13:44:04.250Z,27.25
2022-08-16T13:46:37.950Z,27.36
2022-08-16T13:49:07.062Z,26.07
2022-08-16T13:51:34.983Z,25.93
2022-08-16T13:54:07.596Z,26.22
2022-08-16T13:56:39.781Z,26.46
2022-08-16T13:59:19.198Z,26.55
2022-08-16T14:01:54.968Z,25.11
2022-08-16T14:04:29.972Z,25.95
2022-08-16T14:07:00.593Z,25.04
2022-08-16T14:09:30.496Z,24.60
2022-08-16T14:12:01.201Z,23.96
2022-08-16T14:14:37.654Z,23.52
2022-08-16T14:17:05.680Z,22.61
2022-08-16T14:19:44.760Z,23.11
2022-08-16T14:22:30.553Z,23.32
2022-08-16T14:25:00.699Z,22.49
2022-08-16T14:27:30.921Z,22.55
2022-08-16T14:29:59.595Z,22.11
2022-08-16T14:32:34.141Z,22.57
2022-08-16T14:35:07.376Z,22.36
2022-08-16T14:37:37.235Z,22.13
2022-08-16T14:40:10.781Z,19.66
2022-08-16T14:42:41.659Z,22.11
2022-08-16T14:45:15.741Z,20.76
2022-08-16T14:47:45.449Z,21.03
2022-08-16T14:50:16.310Z,21.57
2022-08-16T14:53:13.257Z,21.97
2022-08-16T14:55:36.984Z,21.61
2022-08-16T14:58:18.839Z,22.56
2022-08-16T15:00:50.455Z,22.35
2022-08-16T15:03:21.984Z,21.64
2022-08-16T15:05:53.755Z,21.61
2022-08-16T15:08:21.982Z,22.31
2022-08-16T15:11:07.768Z,22.16
2022-08-16T15:13:36.112Z,22.26
2022-08-16T15:16:05.720Z,23.04
2022-08-16T15:18:33.920Z,22.36
2022-08-16T15:21:04.991Z,22.76
2022-08-16T15:23:34.275Z,23.42
2022-08-16T15:26:04.105Z,23.61
2022-08-16T15:28:36.903Z,22.78
2022-08-16T15:31:08.507Z,22.53
2022-08-16T15:33:44.439Z,22.11
2022-08-16T15:36:19.249Z,22.49
2022-08-16T15:39:02.834Z,23.04
2022-08-16T15:41:38.873Z,23.69
2022-08-16T15:44:13.422Z,24.06
2022-08-16T15:46:55.185Z,25.05
2022-08-16T15:49:37.122Z,24.98
2022-08-16T15:52:11.423Z,24.70
2022-08-16T15:54:52.328Z,24.81
2022-08-16T15:57:25.886Z,25.21
2022-08-16T15:59:55.841Z,24.57
2022-08-16T16:02:39.069Z,25.66
2022-08-16T16:05:10.213Z,25.80
2022-08-16T16:07:40.896Z,26.09
2022-08-16T16:10:29.453Z,26.26
2022-08-16T16:13:00.704Z,26.57
2022-08-16T16:15:31.991Z,26.90
2022-08-16T16:17:59.909Z,26.34
2022-08-16T16:20:43.799Z,26.17
2022-08-16T16:23:11.815Z,26.37
2022-08-16T16:25:43.912Z,27.05
2022-08-16T16:29:05.856Z,26.40
2022-08-16T16:31:10.161Z,28.66
2022-08-16T16:33:43.370Z,29.14
2022-08-16T16:36:15.531Z,29.62
2022-08-16T16:38:47.909Z,29.99
2022-08-16T16:41:22.881Z,30.04
2022-08-16T16:43:53.540Z,28.83
2022-08-16T16:46:39.044Z,28.29
2022-08-16T16:49:14.165Z,28.16
2022-08-16T16:51:44.835Z,27.79
2022-08-16T16:54:27.507Z,27.70
2022-08-16T16:56:58.435Z,28.98
2022-08-16T16:59:28.229Z,28.12
2022-08-16T17:02:28.238Z,29.07
2022-08-16T17:04:47.510Z,27.86
2022-08-16T17:07:16.670Z,28.66
2022-08-16T17:09:46.966Z,28.79
2022-08-16T17:15:05.476Z,28.03
2022-08-16T17:17:38.961Z,28.42
2022-08-16T17:20:25.315Z,28.98
2022-08-16T17:22:55.902Z,29.21
2022-08-16T17:25:25.441Z,28.15
2022-08-16T17:27:53.954Z,28.59
2022-08-16T17:30:44.905Z,29.05
2022-08-16T17:33:13.510Z,29.32
2022-08-16T17:35:45.871Z,30.18
2022-08-16T17:38:38.547Z,30.24
2022-08-16T17:39:26.138Z,28.43
2022-08-16T17:41:12.360Z,28.76
2022-08-16T17:43:44.289Z,31.93
2022-08-16T17:46:50.852Z,34.99
2022-08-16T17:49:06.459Z,36.01
2022-08-16T17:51:34.567Z,38.57
2022-08-16T17:54:03.701Z,37.84
2022-08-16T17:56:31.851Z,38.18
2022-08-16T17:59:00.101Z,40.07
2022-08-16T18:01:28.248Z,40.71
2022-08-16T18:04:09.165Z,43.33
2022-08-16T18:06:38.824Z,44.24
2022-08-16T18:09:07.922Z,45.29
2022-08-16T18:11:43.140Z,43.24
2022-08-16T18:14:15.852Z,43.09
2022-08-16T18:16:46.490Z,40.91
2022-08-16T18:19:15.092Z,39.91
2022-08-16T18:22:01.973Z,40.05
2022-08-16T18:24:30.356Z,40.22
2022-08-16T18:27:25.177Z,40.58
2022-08-16T18:29:49.919Z,40.85
2022-08-16T18:32:22.165Z,42.69
2022-08-16T18:34:54.991Z,44.58
2022-08-16T18:37:24.149Z,44.58
2022-08-16T18:39:52.803Z,44.95
2022-08-16T18:42:21.861Z,43.75
2022-08-16T18:44:50.577Z,41.19
2022-08-16T18:47:19.181Z,41.41
2022-08-16T18:49:49.451Z,43.09
2022-08-16T18:52:25.032Z,45.60
2022-08-16T18:55:02.336Z,47.10
2022-08-16T18:57:42.537Z,43.64
2022-08-16T19:00:15.031Z,43.90
2022-08-16T19:02:57.387Z,45.48
2022-08-16T19:05:30.137Z,45.53
2022-08-16T19:08:02.581Z,44.08
2022-08-16T19:10:33.582Z,44.84
2022-08-16T19:13:07.544Z,45.65
2022-08-16T19:15:37.684Z,46.92
2022-08-16T19:18:06.183Z,47.54
2022-08-16T19:20:34.664Z,45.96
2022-08-16T19:23:05.389Z,47.02
2022-08-16T19:25:46.663Z,46.20
2022-08-16T19:28:59.123Z,46.75
2022-08-16T19:31:29.165Z,46.08
2022-08-16T19:33:58.598Z,46.45
2022-08-16T19:36:36.964Z,47.92
2022-08-16T19:39:11.992Z,47.32
2022-08-16T19:41:44.286Z,47.59
2022-08-16T19:44:13.993Z,47.46
2022-08-16T19:46:45.223Z,47.64
2022-08-16T19:49:16.014Z,48.21
2022-08-16T19:51:46.788Z,48.45
2022-08-16T19:54:16.253Z,48.45
2022-08-16T19:56:44.875Z,48.35
2022-08-16T19:59:39.145Z,48.68
2022-08-16T20:02:03.799Z,48.98
2022-08-16T20:04:33.360Z,49.52
2022-08-16T20:07:02.391Z,50.15
2022-08-16T20:09:30.933Z,51.69
2022-08-16T20:12:06.207Z,51.45
2022-08-16T20:14:34.962Z,50.99
2022-08-16T20:17:03.862Z,52.78
2022-08-16T20:19:38.766Z,51.96
2022-08-16T20:22:51.778Z,51.64
2022-08-16T20:25:28.184Z,51.21
2022-08-16T20:27:58.292Z,52.62
2022-08-16T20:30:27.173Z,52.01
2022-08-16T20:32:56.129Z,53.50
2022-08-16T20:35:27.763Z,51.86
2022-08-16T20:37:56.664Z,51.53
2022-08-16T20:40:35.029Z,53.81
2022-08-16T20:43:10.662Z,54.31
2022-08-16T20:45:40.198Z,53.46
2022-08-16T20:48:08.702Z,54.03
2022-08-16T20:50:37.183Z,53.90
2022-08-16T20:53:06.643Z,52.49
2022-08-16T20:55:36.280Z,52.56
2022-08-16T20:58:04.165Z,54.13
2022-08-16T21:00:33.723Z,53.36
2022-08-16T21:03:06.883Z,54.19
2022-08-16T21:05:35.815Z,53.08
2022-08-16T21:08:09.696Z,53.03
2022-08-16T21:10:52.782Z,53.23
2022-08-16T21:13:21.152Z,54.12
2022-08-16T21:15:49.241Z,53.98
2022-08-16T21:18:17.616Z,53.73
2022-08-16T21:20:45.315Z,53.29
2022-08-16T21:23:13.134Z,54.15
2022-08-16T21:25:58.044Z,54.29
2022-08-16T21:28:40.137Z,53.66
2022-08-16T21:31:11.542Z,53.64
2022-08-16T21:33:39.721Z,53.30
2022-08-16T21:36:07.813Z,56.05
2022-08-16T21:38:36.072Z,54.73
2022-08-16T21:41:05.254Z,54.72
2022-08-16T21:43:34.012Z,56.46
2022-08-16T21:46:03.496Z,55.58
2022-08-16T21:48:34.712Z,56.00
2022-08-16T21:51:09.217Z,54.19
2022-08-16T21:53:37.667Z,53.69
2022-08-16T21:56:06.662Z,54.70
2022-08-16T21:58:36.122Z,54.91
2022-08-16T22:01:04.082Z,54.98
2022-08-16T22:03:33.139Z,55.58
2022-08-16T22:06:12.707Z,55.62
2022-08-16T22:08:50.056Z,56.34
2022-08-16T22:11:20.345Z,56.38
2022-08-16T22:13:57.394Z,57.30
2022-08-16T22:16:30.534Z,57.13
2022-08-16T22:18:59.945Z,57.36
2022-08-16T22:21:27.824Z,57.92
2022-08-16T22:23:58.480Z,57.29
2022-08-16T22:26:30.251Z,57.23
2022-08-16T22:29:39.501Z,57.33
2022-08-16T22:32:10.393Z,58.18
2022-08-16T22:34:38.126Z,58.22
2022-08-16T22:37:05.862Z,58.97
2022-08-16T22:39:33.952Z,58.21
2022-08-16T22:42:08.356Z,58.46
2022-08-16T22:44:37.518Z,58.94
2022-08-16T22:47:05.353Z,60.14
2022-08-16T22:49:33.459Z,58.70
2022-08-16T22:52:09.072Z,59.05
2022-08-16T22:54:48.533Z,58.84
2022-08-16T22:57:17.152Z,60.40
2022-08-16T22:59:45.323Z,59.90
2022-08-16T23:02:13.357Z,59.45
2022-08-16T23:04:42.743Z,59.59
2022-08-16T23:07:10.613Z,59.49
2022-08-16T23:09:38.624Z,59.52
2022-08-16T23:12:07.682Z,59.68
2022-08-16T23:14:35.503Z,60.18
2022-08-16T23:17:03.464Z,59.82
2022-08-16T23:19:31.653Z,59.94
2022-08-16T23:21:59.604Z,59.74
2022-08-16T23:24:27.737Z,60.11
2022-08-16T23:26:55.833Z,60.30
2022-08-16T23:29:26.328Z,61.12
2022-08-16T23:31:59.054Z,60.67
2022-08-16T23:34:28.497Z,59.92
2022-08-16T23:36:56.656Z,59.80
2022-08-16T23:39:24.949Z,60.05
2022-08-16T23:41:53.462Z,60.13
2022-08-16T23:44:56.089Z,59.47
2022-08-16T23:47:09.754Z,60.13
2022-08-16T23:49:56.290Z,58.97
2022-08-16T23:52:40.576Z,58.54
2022-08-16T23:55:16.321Z,59.49
2022-08-16T23:57:46.415Z,59.79
